createdAt,value
2018-12-31T00:02:02.976Z,46.95
2018-12-31T00:07:43.144Z,45.15
2018-12-31T00:10:11.474Z,40.73
2018-12-31T00:12:39.403Z,44.98
2018-12-31T00:21:03.268Z,39.95
2018-12-31T00:23:31.274Z,40.58
2018-12-31T00:25:59.253Z,41.45
2018-12-31T00:28:27.134Z,39.58
2018-12-31T00:30:55.182Z,49.50
2018-12-31T00:33:23.074Z,39.60
2018-12-31T00:35:51.223Z,41.35
2018-12-31T00:38:19.193Z,39.83
2018-12-31T00:40:48.837Z,39.20
2018-12-31T00:43:16.825Z,42.48
2018-12-31T00:45:44.838Z,41.25
2018-12-31T00:48:12.776Z,40.43
2018-12-31T00:51:00.907Z,38.05
2018-12-31T00:53:28.826Z,37.13
2018-12-31T00:55:56.738Z,34.48
2018-12-31T00:58:25.008Z,35.85
2018-12-31T01:03:57.161Z,35.50
2018-12-31T01:06:25.074Z,33.35
2018-12-31T01:08:53.039Z,39.30
2018-12-31T01:11:20.935Z,38.10
2018-12-31T01:13:48.878Z,36.10
2018-12-31T01:16:35.807Z,37.00
2018-12-31T01:19:04.101Z,36.30
2018-12-31T01:21:32.004Z,36.42
2018-12-31T01:23:59.893Z,37.28
2018-12-31T01:26:30.012Z,37.00
2018-12-31T01:28:57.988Z,36.40
2018-12-31T01:31:44.949Z,34.95
2018-12-31T01:34:12.978Z,34.38
2018-12-31T01:39:31.643Z,34.58
2018-12-31T01:41:59.555Z,32.25
2018-12-31T01:45:05.492Z,33.55
2018-12-31T01:47:33.394Z,30.62
2018-12-31T01:50:01.315Z,32.28
2018-12-31T01:52:29.191Z,31.97
2018-12-31T01:54:57.087Z,28.67
2018-12-31T01:57:24.980Z,28.83
2018-12-31T01:59:52.986Z,30.75
2018-12-31T02:02:20.945Z,28.32
2018-12-31T02:05:07.832Z,28.98
2018-12-31T02:07:35.713Z,28.73
2018-12-31T02:10:24.165Z,28.15
2018-12-31T02:12:52.150Z,29.00
2018-12-31T02:15:39.129Z,34.55
2018-12-31T02:18:07.035Z,30.17
2018-12-31T02:23:28.698Z,29.63
2018-12-31T02:28:43.809Z,29.45
2018-12-31T02:31:11.807Z,29.15
2018-12-31T02:33:40.152Z,29.45
2018-12-31T02:36:08.108Z,31.75
2018-12-31T02:38:35.999Z,27.82
2018-12-31T02:41:04.045Z,28.75
2018-12-31T02:43:31.894Z,29.12
2018-12-31T02:49:14.427Z,28.35
2018-12-31T02:51:42.353Z,27.32
2018-12-31T02:54:10.274Z,30.75
2018-12-31T02:56:39.258Z,28.15
2018-12-31T02:59:07.341Z,33.13
2018-12-31T03:01:54.197Z,30.62
2018-12-31T03:04:22.106Z,33.48
2018-12-31T03:06:52.369Z,32.45
2018-12-31T03:09:21.161Z,31.20
2018-12-31T03:11:49.140Z,33.42
2018-12-31T03:14:17.255Z,35.25
2018-12-31T03:16:45.219Z,33.65
2018-12-31T03:22:20.887Z,39.10
2018-12-31T03:24:48.811Z,33.48
2018-12-31T03:27:17.262Z,34.53
2018-12-31T03:29:45.150Z,32.60
2018-12-31T03:32:13.108Z,37.15
2018-12-31T03:38:07.577Z,39.35
2018-12-31T03:40:35.462Z,36.15
2018-12-31T03:43:05.954Z,41.05
2018-12-31T03:48:22.986Z,38.95
2018-12-31T03:51:09.884Z,39.65
2018-12-31T03:53:37.809Z,42.20
2018-12-31T03:56:05.651Z,39.63
2018-12-31T03:58:33.564Z,36.13
2018-12-31T04:01:01.483Z,45.20
2018-12-31T04:03:29.381Z,42.85
2018-12-31T04:11:58.098Z,49.55
2018-12-31T04:14:26.299Z,48.38
2018-12-31T04:16:54.169Z,48.75
2018-12-31T04:19:22.393Z,46.63
2018-12-31T04:21:50.282Z,42.03
2018-12-31T04:27:07.246Z,43.25
2018-12-31T04:29:35.473Z,45.20
2018-12-31T04:32:03.431Z,49.90
2018-12-31T04:34:31.370Z,44.55
2018-12-31T04:36:59.255Z,50.12
2018-12-31T04:39:27.212Z,46.00
2018-12-31T04:42:14.120Z,59.03
2018-12-31T04:44:42.042Z,55.12
2018-12-31T04:47:11.941Z,45.20
2018-12-31T04:55:54.200Z,48.60
2018-12-31T04:58:23.317Z,41.25
2018-12-31T05:00:52.097Z,41.10
2018-12-31T05:03:22.008Z,58.78
2018-12-31T05:05:49.901Z,47.90
2018-12-31T05:08:17.905Z,52.85
2018-12-31T05:10:45.826Z,50.08
2018-12-31T05:13:34.369Z,43.45
2018-12-31T05:16:02.293Z,51.58
2018-12-31T05:18:30.458Z,53.87
2018-12-31T05:20:58.360Z,47.45
2018-12-31T05:23:26.381Z,46.08
2018-12-31T05:25:54.205Z,55.50
2018-12-31T05:28:22.103Z,58.25
2018-12-31T05:30:49.950Z,49.98
2018-12-31T05:33:17.870Z,50.05
2018-12-31T05:35:45.738Z,49.80
2018-12-31T05:43:26.367Z,49.73
2018-12-31T05:45:54.542Z,48.10
2018-12-31T05:48:22.458Z,50.35
2018-12-31T05:53:57.885Z,61.30
2018-12-31T05:59:16.877Z,53.05
2018-12-31T06:01:44.757Z,47.80
2018-12-31T06:04:12.690Z,48.58
2018-12-31T06:06:40.643Z,46.45
2018-12-31T06:09:08.533Z,51.73
2018-12-31T06:11:36.422Z,42.70
2018-12-31T06:16:38.131Z,47.27
2018-12-31T06:19:06.157Z,48.55
2018-12-31T06:21:34.038Z,46.35
2018-12-31T06:24:01.899Z,45.03
2018-12-31T06:26:29.790Z,55.12
2018-12-31T06:28:57.944Z,51.63
2018-12-31T06:31:25.881Z,43.87
2018-12-31T06:33:53.772Z,46.42
2018-12-31T06:36:21.646Z,45.67
2018-12-31T06:38:49.518Z,50.73
2018-12-31T06:41:17.467Z,46.65
2018-12-31T06:47:03.584Z,49.58
2018-12-31T06:49:31.499Z,45.52
2018-12-31T06:52:18.458Z,48.83
2018-12-31T06:54:46.308Z,42.75
2018-12-31T06:57:40.773Z,49.93
2018-12-31T07:00:27.601Z,48.08
2018-12-31T07:02:55.526Z,48.68
2018-12-31T07:05:23.471Z,45.28
2018-12-31T07:07:51.758Z,48.48
2018-12-31T07:10:19.680Z,43.95
2018-12-31T07:12:47.667Z,46.42
2018-12-31T07:15:17.982Z,42.90
2018-12-31T07:17:45.850Z,50.78
2018-12-31T07:20:13.695Z,45.83
2018-12-31T07:22:41.611Z,46.33
2018-12-31T07:25:09.492Z,51.50
2018-12-31T07:27:56.458Z,46.70
2018-12-31T07:30:26.788Z,49.73
2018-12-31T07:33:13.661Z,44.35
2018-12-31T07:38:29.025Z,43.28
2018-12-31T07:40:56.889Z,41.48
2018-12-31T07:43:25.162Z,41.45
2018-12-31T07:45:53.049Z,37.55
2018-12-31T07:48:21.394Z,40.28
2018-12-31T07:50:49.259Z,39.38
2018-12-31T07:53:17.158Z,36.83
2018-12-31T07:55:45.022Z,41.53
2018-12-31T07:58:12.882Z,37.08
2018-12-31T08:00:40.922Z,31.55
2018-12-31T08:03:08.750Z,32.50
2018-12-31T08:05:36.549Z,37.88
2018-12-31T08:08:04.394Z,32.50
2018-12-31T08:10:32.202Z,35.25
2018-12-31T08:13:00.014Z,32.30
2018-12-31T08:15:27.910Z,36.30
2018-12-31T08:17:55.786Z,33.53
2018-12-31T08:20:23.585Z,42.58
2018-12-31T08:22:51.409Z,35.08
2018-12-31T08:25:19.241Z,34.25
2018-12-31T08:27:47.037Z,40.35
2018-12-31T08:30:14.854Z,33.70
2018-12-31T08:32:42.950Z,36.35
2018-12-31T08:35:10.776Z,36.77
2018-12-31T08:37:38.583Z,39.83
2018-12-31T08:40:06.410Z,39.40
2018-12-31T08:42:34.224Z,38.75
2018-12-31T08:45:02.065Z,33.50
2018-12-31T08:47:29.863Z,40.40
2018-12-31T08:49:57.706Z,37.20
2018-12-31T08:52:25.593Z,34.55
2018-12-31T08:54:53.430Z,40.95
2018-12-31T08:57:21.280Z,32.48
2018-12-31T08:59:49.106Z,35.68
2018-12-31T09:02:16.930Z,36.38
2018-12-31T09:04:44.997Z,33.58
2018-12-31T09:07:12.861Z,34.48
2018-12-31T09:09:40.647Z,30.95
2018-12-31T09:12:08.489Z,34.70
2018-12-31T09:14:36.333Z,32.25
2018-12-31T09:17:04.177Z,32.13
2018-12-31T09:19:31.991Z,32.90
2018-12-31T09:21:59.805Z,31.62
2018-12-31T09:24:27.610Z,28.62
2018-12-31T09:26:55.473Z,31.02
2018-12-31T09:29:23.290Z,27.70
2018-12-31T09:31:51.136Z,28.95
2018-12-31T09:34:18.944Z,28.65
2018-12-31T09:36:46.815Z,27.42
2018-12-31T09:39:14.638Z,30.17
2018-12-31T09:41:42.462Z,30.02
2018-12-31T09:44:10.326Z,29.45
2018-12-31T09:46:38.119Z,29.80
2018-12-31T09:49:05.997Z,30.88
2018-12-31T09:51:33.837Z,28.73
2018-12-31T09:54:01.662Z,24.40
2018-12-31T09:56:29.499Z,24.82
2018-12-31T09:58:57.365Z,26.75
2018-12-31T10:01:25.190Z,27.20
2018-12-31T10:03:53.021Z,25.52
2018-12-31T10:06:20.837Z,31.45
2018-12-31T10:08:49.394Z,24.63
2018-12-31T10:11:18.253Z,25.25
2018-12-31T10:13:46.099Z,22.25
2018-12-31T10:16:13.915Z,22.60
2018-12-31T10:18:41.712Z,25.82
2018-12-31T10:21:09.561Z,23.50
2018-12-31T10:23:37.409Z,24.60
2018-12-31T10:26:05.237Z,26.85
2018-12-31T10:28:33.036Z,22.58
2018-12-31T10:31:00.879Z,24.52
2018-12-31T10:33:28.711Z,26.57
2018-12-31T10:35:56.522Z,23.55
2018-12-31T10:38:24.330Z,24.35
2018-12-31T10:40:52.539Z,21.77
2018-12-31T10:43:20.350Z,23.50
2018-12-31T10:45:48.250Z,23.38
2018-12-31T10:48:16.108Z,25.72
2018-12-31T10:50:44.014Z,22.80
2018-12-31T10:53:11.845Z,23.35
2018-12-31T10:55:39.703Z,24.05
2018-12-31T10:58:07.534Z,22.30
2018-12-31T11:00:35.369Z,24.32
2018-12-31T11:03:03.239Z,21.17
2018-12-31T11:05:31.070Z,21.95
2018-12-31T11:07:58.938Z,21.25
2018-12-31T11:10:26.773Z,24.20
2018-12-31T11:12:54.843Z,20.57
2018-12-31T11:15:22.683Z,23.57
2018-12-31T11:17:50.593Z,23.40
2018-12-31T11:20:18.424Z,24.55
2018-12-31T11:25:20.462Z,24.90
2018-12-31T11:27:48.350Z,21.70
2018-12-31T11:30:16.256Z,22.62
2018-12-31T11:32:44.210Z,21.12
2018-12-31T11:35:12.078Z,25.72
2018-12-31T11:37:39.956Z,26.80
2018-12-31T11:40:07.914Z,25.55
2018-12-31T11:42:35.861Z,28.40
2018-12-31T11:45:03.813Z,23.65
2018-12-31T11:47:50.720Z,24.00
2018-12-31T11:50:18.638Z,26.52
2018-12-31T11:55:54.527Z,34.48
2018-12-31T11:58:22.484Z,33.45
2018-12-31T12:00:50.431Z,32.17
2018-12-31T12:03:18.353Z,35.88
2018-12-31T12:05:46.245Z,32.33
2018-12-31T12:08:16.070Z,31.30
2018-12-31T12:10:43.935Z,32.45
2018-12-31T12:13:11.806Z,23.98
2018-12-31T12:15:39.726Z,27.20
2018-12-31T12:18:07.587Z,25.95
2018-12-31T12:20:35.874Z,30.32
2018-12-31T12:23:03.745Z,29.85
2018-12-31T12:25:31.682Z,32.08
2018-12-31T12:27:59.853Z,27.13
2018-12-31T12:30:27.742Z,25.57
2018-12-31T12:32:55.641Z,30.02
2018-12-31T12:35:23.535Z,28.75
2018-12-31T12:37:51.502Z,30.32
2018-12-31T12:40:19.430Z,28.47
2018-12-31T12:42:49.159Z,25.55
2018-12-31T12:45:19.345Z,30.45
2018-12-31T12:47:47.222Z,33.53
2018-12-31T12:52:51.001Z,31.02
2018-12-31T12:55:18.897Z,31.07
2018-12-31T12:57:46.801Z,34.48
2018-12-31T13:00:14.788Z,30.02
2018-12-31T13:02:42.688Z,30.20
2018-12-31T13:05:10.598Z,30.60
2018-12-31T13:07:40.330Z,28.95
2018-12-31T13:10:08.190Z,27.65
2018-12-31T13:12:36.236Z,30.70
2018-12-31T13:15:04.360Z,27.40
2018-12-31T13:17:32.294Z,28.95
2018-12-31T13:22:40.035Z,29.25
2018-12-31T13:27:55.045Z,32.42
2018-12-31T13:30:23.062Z,38.00
2018-12-31T13:32:50.950Z,27.27
2018-12-31T13:35:18.849Z,33.15
2018-12-31T13:37:46.838Z,31.30
2018-12-31T13:40:14.761Z,27.82
2018-12-31T13:45:22.064Z,36.53
2018-12-31T13:50:24.750Z,31.85
2018-12-31T13:52:52.610Z,30.12
2018-12-31T13:55:22.606Z,28.35
2018-12-31T13:57:50.643Z,29.60
2018-12-31T14:00:37.867Z,26.97
2018-12-31T14:03:07.307Z,28.12
2018-12-31T14:08:23.954Z,29.35
2018-12-31T14:10:51.877Z,28.10
2018-12-31T14:13:19.778Z,26.00
2018-12-31T14:15:47.662Z,29.48
2018-12-31T14:18:15.593Z,28.98
2018-12-31T14:20:43.495Z,28.07
2018-12-31T14:23:13.156Z,29.27
2018-12-31T14:25:41.078Z,33.80
2018-12-31T14:28:08.957Z,31.15
2018-12-31T14:30:36.923Z,29.15
2018-12-31T14:33:04.793Z,27.48
2018-12-31T14:35:34.521Z,29.85
2018-12-31T14:38:02.451Z,27.95
2018-12-31T14:40:30.326Z,27.15
2018-12-31T14:42:58.223Z,28.32
2018-12-31T14:48:00.355Z,25.43
2018-12-31T14:50:28.319Z,28.92
2018-12-31T14:52:56.187Z,28.67
2018-12-31T14:55:24.087Z,29.20
2018-12-31T14:57:51.983Z,29.25
2018-12-31T15:00:19.899Z,24.70
2018-12-31T15:02:47.771Z,29.20
2018-12-31T15:08:12.706Z,26.48
2018-12-31T15:10:40.688Z,28.52
2018-12-31T15:15:57.230Z,36.35
2018-12-31T15:18:44.213Z,31.97
2018-12-31T15:21:12.342Z,36.15
2018-12-31T15:23:59.353Z,37.38
2018-12-31T15:26:27.227Z,33.80
2018-12-31T15:28:55.429Z,31.40
2018-12-31T15:31:23.331Z,33.35
2018-12-31T15:33:51.218Z,28.98
2018-12-31T15:36:19.176Z,33.33
2018-12-31T15:38:47.298Z,29.35
2018-12-31T15:41:29.471Z,29.00
2018-12-31T15:43:44.867Z,33.92
2018-12-31T15:46:19.996Z,28.40
2018-12-31T15:49:01.448Z,30.95
2018-12-31T15:51:29.305Z,30.15
2018-12-31T15:53:57.181Z,29.48
2018-12-31T15:56:25.160Z,29.63
2018-12-31T15:58:53.010Z,37.40
2018-12-31T16:01:20.854Z,33.15
2018-12-31T16:03:48.834Z,29.10
2018-12-31T16:06:16.877Z,47.40
2018-12-31T16:08:47.002Z,40.05
2018-12-31T16:11:14.843Z,36.08
2018-12-31T16:13:43.215Z,34.78
2018-12-31T16:16:11.186Z,36.53
2018-12-31T16:18:39.074Z,32.60
2018-12-31T16:21:06.967Z,31.85
2018-12-31T16:23:34.911Z,38.80
2018-12-31T16:26:02.820Z,35.92
2018-12-31T16:28:45.014Z,38.50
2018-12-31T16:31:02.459Z,39.03
2018-12-31T16:33:30.363Z,35.60
2018-12-31T16:36:00.564Z,37.53
2018-12-31T16:38:40.614Z,31.27
2018-12-31T16:40:58.178Z,32.95
2018-12-31T16:43:26.144Z,34.83
2018-12-31T16:45:54.097Z,29.52
2018-12-31T16:48:21.991Z,27.27
2018-12-31T16:50:49.986Z,30.17
2018-12-31T16:53:17.871Z,25.30
2018-12-31T16:55:45.839Z,28.30
2018-12-31T16:58:15.751Z,33.63
2018-12-31T17:00:43.642Z,28.40
2018-12-31T17:06:00.592Z,35.63
2018-12-31T17:08:30.259Z,34.43
2018-12-31T17:11:17.583Z,35.80
2018-12-31T17:13:47.625Z,31.70
2018-12-31T17:16:15.897Z,32.93
2018-12-31T17:18:45.284Z,33.88
2018-12-31T17:21:33.675Z,35.05
2018-12-31T17:24:15.533Z,32.45
2018-12-31T17:29:40.282Z,36.83
2018-12-31T17:31:56.334Z,30.27
2018-12-31T17:37:13.339Z,32.95
2018-12-31T17:39:41.290Z,37.65
2018-12-31T17:42:09.813Z,34.58
2018-12-31T17:44:57.938Z,38.28
2018-12-31T17:47:26.138Z,33.02
2018-12-31T17:49:54.082Z,30.37
2018-12-31T17:52:24.438Z,39.27
2018-12-31T17:54:54.615Z,33.42
2018-12-31T17:57:22.842Z,39.48
2018-12-31T17:59:50.790Z,39.75
2018-12-31T18:02:18.674Z,40.78
2018-12-31T18:05:06.602Z,33.80
2018-12-31T18:07:34.806Z,36.30
2018-12-31T18:10:02.811Z,40.65
2018-12-31T18:12:30.776Z,39.08
2018-12-31T18:17:39.386Z,40.92
2018-12-31T18:20:26.714Z,36.90
2018-12-31T18:23:06.905Z,39.90
2018-12-31T18:25:24.372Z,41.68
2018-12-31T18:27:52.306Z,45.35
2018-12-31T18:30:39.615Z,37.28
2018-12-31T18:33:07.574Z,43.68
2018-12-31T18:35:35.617Z,47.50
2018-12-31T18:38:05.617Z,40.75
2018-12-31T18:40:34.229Z,55.43
2018-12-31T18:43:23.215Z,43.00
2018-12-31T18:46:17.538Z,48.68
2018-12-31T18:48:47.137Z,47.53
2018-12-31T18:51:15.122Z,52.05
2018-12-31T18:53:42.982Z,46.02
2018-12-31T18:58:46.426Z,44.53
2018-12-31T19:01:14.373Z,42.98
2018-12-31T19:03:42.229Z,39.63
2018-12-31T19:06:10.129Z,46.85
2018-12-31T19:08:37.975Z,46.63
2018-12-31T19:11:05.938Z,56.77
2018-12-31T19:13:33.845Z,54.50
2018-12-31T19:18:36.920Z,45.25
2018-12-31T19:21:04.887Z,124.53
2018-12-31T19:23:38.183Z,44.63
2018-12-31T19:26:28.194Z,45.50
2018-12-31T19:28:56.116Z,36.03
2018-12-31T19:31:26.318Z,40.45
2018-12-31T19:33:57.523Z,38.63
2018-12-31T19:36:27.396Z,37.48
2018-12-31T19:39:14.433Z,42.70
2018-12-31T19:41:42.356Z,41.45
2018-12-31T19:44:11.931Z,43.80
2018-12-31T19:46:42.194Z,35.13
2018-12-31T19:49:10.138Z,37.17
2018-12-31T19:51:38.018Z,36.68
2018-12-31T19:54:05.981Z,40.60
2018-12-31T19:56:34.226Z,36.40
2018-12-31T19:59:02.614Z,41.13
2018-12-31T20:01:30.559Z,40.03
2018-12-31T20:06:52.807Z,39.08
2018-12-31T20:09:20.762Z,39.55
2018-12-31T20:11:48.657Z,40.67
2018-12-31T20:14:16.584Z,40.50
2018-12-31T20:16:44.477Z,39.90
2018-12-31T20:19:12.458Z,39.75
2018-12-31T20:21:40.370Z,36.63
2018-12-31T20:24:08.545Z,36.50
2018-12-31T20:26:37.162Z,43.48
2018-12-31T20:29:05.113Z,41.65
2018-12-31T20:31:33.415Z,38.35
2018-12-31T20:37:14.406Z,36.70
2018-12-31T20:42:30.211Z,38.38
2018-12-31T20:44:58.604Z,37.85
2018-12-31T20:47:26.919Z,40.25
2018-12-31T20:49:55.191Z,38.42
2018-12-31T20:52:23.364Z,41.13
2018-12-31T20:54:51.381Z,40.90
2018-12-31T20:57:19.388Z,35.17
2018-12-31T20:59:47.366Z,38.28
2018-12-31T21:02:15.285Z,39.73
2018-12-31T21:04:43.209Z,34.10
2018-12-31T21:07:13.213Z,44.65
2018-12-31T21:09:42.902Z,35.52
2018-12-31T21:12:10.887Z,38.70
2018-12-31T21:14:39.307Z,38.78
2018-12-31T21:17:07.187Z,37.58
2018-12-31T21:19:36.866Z,36.93
2018-12-31T21:24:51.889Z,36.03
2018-12-31T21:27:40.380Z,35.03
2018-12-31T21:30:09.271Z,33.90
2018-12-31T21:32:37.518Z,34.75
2018-12-31T21:35:05.494Z,36.65
2018-12-31T21:37:35.417Z,39.73
2018-12-31T21:40:03.576Z,35.10
2018-12-31T21:42:31.481Z,35.90
2018-12-31T21:44:59.825Z,37.25
2018-12-31T21:47:30.313Z,40.63
2018-12-31T21:50:17.281Z,34.40
2018-12-31T21:55:41.104Z,39.18
2018-12-31T21:58:09.468Z,36.55
2018-12-31T22:00:40.045Z,39.98
2018-12-31T22:03:07.893Z,41.63
2018-12-31T22:05:55.103Z,41.05
2018-12-31T22:08:23.130Z,37.10
2018-12-31T22:10:51.030Z,42.05
2018-12-31T22:13:37.937Z,48.13
2018-12-31T22:16:05.836Z,50.80
2018-12-31T22:18:33.823Z,49.18
2018-12-31T22:21:01.704Z,48.28
2018-12-31T22:23:29.593Z,44.75
2018-12-31T22:25:57.642Z,45.00
2018-12-31T22:28:25.517Z,48.05
2018-12-31T22:30:55.455Z,41.88
2018-12-31T22:33:23.714Z,42.50
2018-12-31T22:38:46.155Z,42.62
2018-12-31T22:41:14.173Z,46.05
2018-12-31T22:43:42.301Z,42.78
2018-12-31T22:46:10.262Z,44.33
2018-12-31T22:48:38.101Z,40.85
2018-12-31T22:51:25.759Z,45.50
2018-12-31T22:54:12.725Z,49.25
2018-12-31T22:56:40.763Z,45.65
2018-12-31T22:59:08.717Z,48.30
2018-12-31T23:04:30.361Z,113.55
2018-12-31T23:07:02.634Z,143.62
2018-12-31T23:12:38.294Z,237.50
2018-12-31T23:15:08.893Z,236.85
2018-12-31T23:20:30.765Z,195.90
2018-12-31T23:23:02.801Z,166.97
2018-12-31T23:25:30.714Z,122.70
2018-12-31T23:27:58.661Z,129.70
2018-12-31T23:30:26.519Z,105.27
2018-12-31T23:32:54.599Z,98.67
2018-12-31T23:35:22.456Z,92.25
2018-12-31T23:37:50.491Z,73.72
2018-12-31T23:40:18.446Z,62.13
2018-12-31T23:42:46.358Z,65.78
2018-12-31T23:45:14.316Z,61.13
2018-12-31T23:47:42.210Z,60.28
2018-12-31T23:50:12.118Z,54.85
2018-12-31T23:52:40.042Z,54.93
2018-12-31T23:55:07.917Z,47.00
2018-12-31T23:57:35.811Z,47.62
